sensor_id;sensor_type;location;lat;lon;timestamp;P1;durP1;ratioP1;P2;durP2;ratioP2
15202;SDS011;7702;51.046;5.184;2023-02-28T00:00:19;5.20;;;4.67;;
15202;SDS011;7702;51.046;5.184;2023-02-28T00:02:46;7.30;;;4.83;;
15202;SDS011;7702;51.046;5.184;2023-02-28T00:05:13;6.93;;;4.77;;
15202;SDS011;7702;51.046;5.184;2023-02-28T00:07:41;4.87;;;4.30;;
15202;SDS011;7702;51.046;5.184;2023-02-28T00:10:08;6.50;;;4.20;;
15202;SDS011;7702;51.046;5.184;2023-02-28T00:12:36;6.20;;;4.87;;
15202;SDS011;7702;51.046;5.184;2023-02-28T00:15:04;7.53;;;4.57;;
15202;SDS011;7702;51.046;5.184;2023-02-28T00:17:31;6.80;;;4.63;;
15202;SDS011;7702;51.046;5.184;2023-02-28T00:19:57;5.90;;;4.70;;
15202;SDS011;7702;51.046;5.184;2023-02-28T00:22:34;5.70;;;4.00;;
15202;SDS011;7702;51.046;5.184;2023-02-28T00:25:01;6.47;;;4.57;;
15202;SDS011;7702;51.046;5.184;2023-02-28T00:27:27;6.10;;;4.37;;
15202;SDS011;7702;51.046;5.184;2023-02-28T00:29:53;4.30;;;3.90;;
15202;SDS011;7702;51.046;5.184;2023-02-28T00:32:19;6.33;;;4.80;;
15202;SDS011;7702;51.046;5.184;2023-02-28T00:34:44;7.47;;;4.70;;
15202;SDS011;7702;51.046;5.184;2023-02-28T00:37:10;5.30;;;4.40;;
15202;SDS011;7702;51.046;5.184;2023-02-28T00:39:37;5.77;;;4.67;;
15202;SDS011;7702;51.046;5.184;2023-02-28T00:42:05;5.80;;;4.37;;
15202;SDS011;7702;51.046;5.184;2023-02-28T00:44:31;6.50;;;4.47;;
15202;SDS011;7702;51.046;5.184;2023-02-28T00:46:58;4.97;;;4.20;;
15202;SDS011;7702;51.046;5.184;2023-02-28T00:49:26;5.03;;;4.63;;
15202;SDS011;7702;51.046;5.184;2023-02-28T00:51:53;8.73;;;5.27;;
15202;SDS011;7702;51.046;5.184;2023-02-28T00:54:20;7.07;;;4.57;;
15202;SDS011;7702;51.046;5.184;2023-02-28T00:56:46;6.60;;;4.97;;
15202;SDS011;7702;51.046;5.184;2023-02-28T00:59:13;5.23;;;4.00;;
15202;SDS011;7702;51.046;5.184;2023-02-28T01:01:39;7.63;;;4.53;;
15202;SDS011;7702;51.046;5.184;2023-02-28T01:04:05;7.53;;;5.07;;
15202;SDS011;7702;51.046;5.184;2023-02-28T01:06:31;9.40;;;5.60;;
15202;SDS011;7702;51.046;5.184;2023-02-28T01:08:57;6.63;;;4.47;;
15202;SDS011;7702;51.046;5.184;2023-02-28T01:11:23;8.20;;;4.93;;
15202;SDS011;7702;51.046;5.184;2023-02-28T01:13:49;6.93;;;4.50;;
15202;SDS011;7702;51.046;5.184;2023-02-28T01:16:15;5.03;;;4.53;;
15202;SDS011;7702;51.046;5.184;2023-02-28T01:18:41;6.17;;;4.90;;
15202;SDS011;7702;51.046;5.184;2023-02-28T01:21:08;9.63;;;5.60;;
15202;SDS011;7702;51.046;5.184;2023-02-28T01:23:40;7.37;;;5.60;;
15202;SDS011;7702;51.046;5.184;2023-02-28T01:26:07;8.73;;;5.17;;
15202;SDS011;7702;51.046;5.184;2023-02-28T01:28:34;6.60;;;5.73;;
15202;SDS011;7702;51.046;5.184;2023-02-28T01:31:00;6.93;;;5.27;;
15202;SDS011;7702;51.046;5.184;2023-02-28T01:33:26;6.20;;;5.20;;
15202;SDS011;7702;51.046;5.184;2023-02-28T01:36:01;8.67;;;6.47;;
15202;SDS011;7702;51.046;5.184;2023-02-28T01:38:32;6.17;;;5.57;;
15202;SDS011;7702;51.046;5.184;2023-02-28T01:40:58;6.53;;;5.87;;
15202;SDS011;7702;51.046;5.184;2023-02-28T01:43:29;6.27;;;5.43;;
15202;SDS011;7702;51.046;5.184;2023-02-28T01:45:57;6.80;;;5.40;;
15202;SDS011;7702;51.046;5.184;2023-02-28T01:48:42;8.87;;;6.00;;
15202;SDS011;7702;51.046;5.184;2023-02-28T01:51:20;9.47;;;5.80;;
15202;SDS011;7702;51.046;5.184;2023-02-28T01:53:53;6.63;;;5.53;;
15202;SDS011;7702;51.046;5.184;2023-02-28T01:56:24;7.77;;;6.37;;
15202;SDS011;7702;51.046;5.184;2023-02-28T01:58:54;8.47;;;6.63;;
15202;SDS011;7702;51.046;5.184;2023-02-28T02:01:21;6.70;;;5.97;;
15202;SDS011;7702;51.046;5.184;2023-02-28T02:03:56;8.27;;;6.20;;
15202;SDS011;7702;51.046;5.184;2023-02-28T02:06:37;7.90;;;6.37;;
15202;SDS011;7702;51.046;5.184;2023-02-28T02:09:07;9.07;;;6.30;;
15202;SDS011;7702;51.046;5.184;2023-02-28T02:11:33;8.77;;;6.57;;
15202;SDS011;7702;51.046;5.184;2023-02-28T02:16:45;10.67;;;7.20;;
15202;SDS011;7702;51.046;5.184;2023-02-28T02:22:33;12.73;;;7.57;;
15202;SDS011;7702;51.046;5.184;2023-02-28T02:36:13;10.20;;;7.13;;
15202;SDS011;7702;51.046;5.184;2023-02-28T02:41:13;10.97;;;7.57;;
15202;SDS011;7702;51.046;5.184;2023-02-28T02:44:07;10.80;;;7.67;;
15202;SDS011;7702;51.046;5.184;2023-02-28T02:47:38;12.80;;;8.33;;
15202;SDS011;7702;51.046;5.184;2023-02-28T02:49:48;9.10;;;7.37;;
15202;SDS011;7702;51.046;5.184;2023-02-28T02:52:16;9.17;;;7.43;;
15202;SDS011;7702;51.046;5.184;2023-02-28T02:54:47;10.00;;;7.53;;
15202;SDS011;7702;51.046;5.184;2023-02-28T02:57:21;10.70;;;8.43;;
15202;SDS011;7702;51.046;5.184;2023-02-28T02:59:52;10.37;;;8.23;;
15202;SDS011;7702;51.046;5.184;2023-02-28T03:02:21;9.00;;;8.13;;
15202;SDS011;7702;51.046;5.184;2023-02-28T03:04:51;11.97;;;9.10;;
15202;SDS011;7702;51.046;5.184;2023-02-28T03:07:25;10.07;;;7.47;;
15202;SDS011;7702;51.046;5.184;2023-02-28T03:09:52;10.83;;;8.90;;
15202;SDS011;7702;51.046;5.184;2023-02-28T03:12:19;12.20;;;8.90;;
15202;SDS011;7702;51.046;5.184;2023-02-28T03:15:31;11.40;;;8.23;;
15202;SDS011;7702;51.046;5.184;2023-02-28T03:18:06;10.70;;;8.10;;
15202;SDS011;7702;51.046;5.184;2023-02-28T03:20:41;10.37;;;8.87;;
15202;SDS011;7702;51.046;5.184;2023-02-28T03:23:29;12.87;;;9.33;;
15202;SDS011;7702;51.046;5.184;2023-02-28T03:26:01;15.23;;;9.07;;
15202;SDS011;7702;51.046;5.184;2023-02-28T03:28:45;13.93;;;8.40;;
15202;SDS011;7702;51.046;5.184;2023-02-28T03:31:37;10.73;;;9.13;;
15202;SDS011;7702;51.046;5.184;2023-02-28T03:34:15;12.67;;;9.20;;
15202;SDS011;7702;51.046;5.184;2023-02-28T03:36:50;10.43;;;8.73;;
15202;SDS011;7702;51.046;5.184;2023-02-28T03:39:28;14.13;;;10.43;;
15202;SDS011;7702;51.046;5.184;2023-02-28T03:42:03;13.50;;;9.13;;
15202;SDS011;7702;51.046;5.184;2023-02-28T03:44:36;13.13;;;9.30;;
15202;SDS011;7702;51.046;5.184;2023-02-28T03:47:13;11.80;;;9.30;;
15202;SDS011;7702;51.046;5.184;2023-02-28T03:52:40;10.77;;;9.27;;
15202;SDS011;7702;51.046;5.184;2023-02-28T03:55:13;10.67;;;8.30;;
15202;SDS011;7702;51.046;5.184;2023-02-28T04:00:34;13.50;;;9.30;;
15202;SDS011;7702;51.046;5.184;2023-02-28T04:03:04;12.43;;;9.40;;
15202;SDS011;7702;51.046;5.184;2023-02-28T04:05:30;14.17;;;10.17;;
15202;SDS011;7702;51.046;5.184;2023-02-28T04:08:03;10.97;;;8.97;;
15202;SDS011;7702;51.046;5.184;2023-02-28T04:10:30;12.27;;;9.30;;
15202;SDS011;7702;51.046;5.184;2023-02-28T04:12:56;13.03;;;9.03;;
15202;SDS011;7702;51.046;5.184;2023-02-28T04:15:22;13.87;;;10.47;;
15202;SDS011;7702;51.046;5.184;2023-02-28T04:17:49;14.67;;;9.67;;
15202;SDS011;7702;51.046;5.184;2023-02-28T04:20:15;12.57;;;10.20;;
15202;SDS011;7702;51.046;5.184;2023-02-28T04:22:41;14.60;;;9.33;;
15202;SDS011;7702;51.046;5.184;2023-02-28T04:25:07;10.80;;;8.73;;
15202;SDS011;7702;51.046;5.184;2023-02-28T04:27:33;12.60;;;9.40;;
15202;SDS011;7702;51.046;5.184;2023-02-28T04:29:59;12.63;;;10.00;;
15202;SDS011;7702;51.046;5.184;2023-02-28T04:32:25;12.13;;;8.53;;
15202;SDS011;7702;51.046;5.184;2023-02-28T04:34:50;13.20;;;9.67;;
15202;SDS011;7702;51.046;5.184;2023-02-28T04:37:16;11.50;;;8.73;;
15202;SDS011;7702;51.046;5.184;2023-02-28T04:39:42;12.90;;;9.50;;
15202;SDS011;7702;51.046;5.184;2023-02-28T04:42:09;13.23;;;9.67;;
15202;SDS011;7702;51.046;5.184;2023-02-28T04:44:36;11.83;;;9.00;;
15202;SDS011;7702;51.046;5.184;2023-02-28T04:47:01;11.33;;;9.13;;
15202;SDS011;7702;51.046;5.184;2023-02-28T04:49:28;12.60;;;9.57;;
15202;SDS011;7702;51.046;5.184;2023-02-28T04:51:53;11.47;;;8.80;;
15202;SDS011;7702;51.046;5.184;2023-02-28T04:54:19;12.17;;;8.93;;
15202;SDS011;7702;51.046;5.184;2023-02-28T04:56:45;13.30;;;9.43;;
15202;SDS011;7702;51.046;5.184;2023-02-28T04:59:11;11.17;;;8.97;;
15202;SDS011;7702;51.046;5.184;2023-02-28T05:01:36;13.87;;;9.57;;
15202;SDS011;7702;51.046;5.184;2023-02-28T05:04:02;13.40;;;9.20;;
15202;SDS011;7702;51.046;5.184;2023-02-28T05:06:31;12.07;;;9.57;;
15202;SDS011;7702;51.046;5.184;2023-02-28T05:08:57;11.70;;;8.77;;
15202;SDS011;7702;51.046;5.184;2023-02-28T05:11:31;12.93;;;9.13;;
15202;SDS011;7702;51.046;5.184;2023-02-28T05:14:02;13.40;;;9.10;;
15202;SDS011;7702;51.046;5.184;2023-02-28T05:16:30;11.13;;;9.07;;
15202;SDS011;7702;51.046;5.184;2023-02-28T05:18:56;10.47;;;9.00;;
15202;SDS011;7702;51.046;5.184;2023-02-28T05:23:53;11.50;;;9.13;;
15202;SDS011;7702;51.046;5.184;2023-02-28T05:26:19;14.37;;;9.53;;
15202;SDS011;7702;51.046;5.184;2023-02-28T05:28:45;11.47;;;9.20;;
15202;SDS011;7702;51.046;5.184;2023-02-28T05:31:11;12.17;;;9.30;;
15202;SDS011;7702;51.046;5.184;2023-02-28T05:33:37;12.43;;;8.50;;
15202;SDS011;7702;51.046;5.184;2023-02-28T05:36:04;12.33;;;9.00;;
15202;SDS011;7702;51.046;5.184;2023-02-28T05:38:31;12.73;;;9.67;;
15202;SDS011;7702;51.046;5.184;2023-02-28T05:40:56;12.10;;;8.50;;
15202;SDS011;7702;51.046;5.184;2023-02-28T05:43:22;13.33;;;8.60;;
15202;SDS011;7702;51.046;5.184;2023-02-28T05:45:48;11.37;;;8.93;;
15202;SDS011;7702;51.046;5.184;2023-02-28T05:48:14;11.67;;;9.23;;
15202;SDS011;7702;51.046;5.184;2023-02-28T05:50:39;10.23;;;8.43;;
15202;SDS011;7702;51.046;5.184;2023-02-28T05:53:07;11.20;;;8.07;;
15202;SDS011;7702;51.046;5.184;2023-02-28T05:55:33;13.63;;;9.20;;
15202;SDS011;7702;51.046;5.184;2023-02-28T05:58:01;13.27;;;9.50;;
15202;SDS011;7702;51.046;5.184;2023-02-28T06:00:26;12.07;;;9.30;;
15202;SDS011;7702;51.046;5.184;2023-02-28T06:02:53;11.77;;;8.77;;
15202;SDS011;7702;51.046;5.184;2023-02-28T06:05:21;10.73;;;8.83;;
15202;SDS011;7702;51.046;5.184;2023-02-28T06:07:47;12.20;;;8.47;;
15202;SDS011;7702;51.046;5.184;2023-02-28T06:10:14;10.07;;;8.73;;
15202;SDS011;7702;51.046;5.184;2023-02-28T06:12:40;14.77;;;8.97;;
15202;SDS011;7702;51.046;5.184;2023-02-28T06:15:07;11.43;;;8.53;;
15202;SDS011;7702;51.046;5.184;2023-02-28T06:17:36;15.63;;;8.20;;
15202;SDS011;7702;51.046;5.184;2023-02-28T06:20:02;10.00;;;8.03;;
15202;SDS011;7702;51.046;5.184;2023-02-28T06:22:28;11.07;;;8.30;;
15202;SDS011;7702;51.046;5.184;2023-02-28T06:24:54;11.80;;;8.63;;
15202;SDS011;7702;51.046;5.184;2023-02-28T06:27:21;11.23;;;9.23;;
15202;SDS011;7702;51.046;5.184;2023-02-28T06:29:47;11.43;;;8.30;;
15202;SDS011;7702;51.046;5.184;2023-02-28T06:32:13;10.47;;;8.07;;
15202;SDS011;7702;51.046;5.184;2023-02-28T06:34:39;9.93;;;8.27;;
15202;SDS011;7702;51.046;5.184;2023-02-28T06:37:05;12.53;;;8.63;;
15202;SDS011;7702;51.046;5.184;2023-02-28T06:39:31;12.00;;;8.93;;
15202;SDS011;7702;51.046;5.184;2023-02-28T06:41:57;11.10;;;8.10;;
15202;SDS011;7702;51.046;5.184;2023-02-28T06:44:23;15.17;;;9.03;;
15202;SDS011;7702;51.046;5.184;2023-02-28T06:46:49;9.83;;;7.97;;
15202;SDS011;7702;51.046;5.184;2023-02-28T06:49:16;11.67;;;7.83;;
15202;SDS011;7702;51.046;5.184;2023-02-28T06:51:43;13.00;;;8.43;;
15202;SDS011;7702;51.046;5.184;2023-02-28T06:54:12;13.97;;;8.43;;
15202;SDS011;7702;51.046;5.184;2023-02-28T06:56:38;11.40;;;8.93;;
15202;SDS011;7702;51.046;5.184;2023-02-28T06:59:04;11.93;;;7.97;;
15202;SDS011;7702;51.046;5.184;2023-02-28T07:01:31;10.47;;;7.63;;
15202;SDS011;7702;51.046;5.184;2023-02-28T07:03:57;10.93;;;8.20;;
15202;SDS011;7702;51.046;5.184;2023-02-28T07:06:25;14.00;;;8.27;;
15202;SDS011;7702;51.046;5.184;2023-02-28T07:08:52;15.33;;;8.77;;
15202;SDS011;7702;51.046;5.184;2023-02-28T07:11:19;12.60;;;8.77;;
15202;SDS011;7702;51.046;5.184;2023-02-28T07:13:47;8.90;;;7.50;;
15202;SDS011;7702;51.046;5.184;2023-02-28T07:16:14;10.07;;;7.80;;
15202;SDS011;7702;51.046;5.184;2023-02-28T07:18:39;14.27;;;7.50;;
15202;SDS011;7702;51.046;5.184;2023-02-28T07:21:06;10.20;;;7.37;;
15202;SDS011;7702;51.046;5.184;2023-02-28T07:23:33;7.37;;;6.43;;
15202;SDS011;7702;51.046;5.184;2023-02-28T07:26:00;8.20;;;6.57;;
15202;SDS011;7702;51.046;5.184;2023-02-28T07:28:26;7.60;;;6.83;;
15202;SDS011;7702;51.046;5.184;2023-02-28T07:30:52;8.37;;;6.60;;
15202;SDS011;7702;51.046;5.184;2023-02-28T07:33:18;7.97;;;6.83;;
15202;SDS011;7702;51.046;5.184;2023-02-28T07:35:44;10.10;;;5.73;;
15202;SDS011;7702;51.046;5.184;2023-02-28T07:38:10;8.43;;;6.10;;
15202;SDS011;7702;51.046;5.184;2023-02-28T07:40:36;8.23;;;6.83;;
15202;SDS011;7702;51.046;5.184;2023-02-28T07:43:02;9.93;;;5.87;;
15202;SDS011;7702;51.046;5.184;2023-02-28T07:45:28;7.43;;;5.67;;
15202;SDS011;7702;51.046;5.184;2023-02-28T07:47:56;9.87;;;6.10;;
15202;SDS011;7702;51.046;5.184;2023-02-28T07:50:22;6.83;;;5.60;;
15202;SDS011;7702;51.046;5.184;2023-02-28T07:52:48;8.53;;;6.17;;
15202;SDS011;7702;51.046;5.184;2023-02-28T07:55:14;6.63;;;5.07;;
15202;SDS011;7702;51.046;5.184;2023-02-28T07:57:41;8.87;;;6.47;;
15202;SDS011;7702;51.046;5.184;2023-02-28T08:00:08;11.80;;;5.63;;
15202;SDS011;7702;51.046;5.184;2023-02-28T08:02:36;5.77;;;5.17;;
15202;SDS011;7702;51.046;5.184;2023-02-28T08:05:02;7.93;;;5.57;;
15202;SDS011;7702;51.046;5.184;2023-02-28T08:07:28;8.37;;;5.57;;
15202;SDS011;7702;51.046;5.184;2023-02-28T08:09:54;7.47;;;5.13;;
15202;SDS011;7702;51.046;5.184;2023-02-28T08:12:20;8.97;;;5.17;;
15202;SDS011;7702;51.046;5.184;2023-02-28T08:14:46;6.13;;;5.10;;
15202;SDS011;7702;51.046;5.184;2023-02-28T08:17:11;5.97;;;4.70;;
15202;SDS011;7702;51.046;5.184;2023-02-28T08:19:37;6.23;;;4.50;;
15202;SDS011;7702;51.046;5.184;2023-02-28T08:22:03;6.90;;;4.77;;
15202;SDS011;7702;51.046;5.184;2023-02-28T08:24:29;7.30;;;5.40;;
15202;SDS011;7702;51.046;5.184;2023-02-28T08:26:55;5.97;;;4.80;;
15202;SDS011;7702;51.046;5.184;2023-02-28T08:29:21;5.73;;;5.07;;
15202;SDS011;7702;51.046;5.184;2023-02-28T08:31:47;5.80;;;4.57;;
15202;SDS011;7702;51.046;5.184;2023-02-28T08:34:13;4.90;;;4.50;;
15202;SDS011;7702;51.046;5.184;2023-02-28T08:36:40;5.80;;;4.60;;
15202;SDS011;7702;51.046;5.184;2023-02-28T08:39:08;5.60;;;5.07;;
15202;SDS011;7702;51.046;5.184;2023-02-28T08:41:35;6.50;;;4.07;;
15202;SDS011;7702;51.046;5.184;2023-02-28T08:44:00;4.63;;;4.13;;
15202;SDS011;7702;51.046;5.184;2023-02-28T08:46:26;4.33;;;3.93;;
15202;SDS011;7702;51.046;5.184;2023-02-28T08:48:52;6.37;;;4.40;;
15202;SDS011;7702;51.046;5.184;2023-02-28T08:51:19;4.00;;;3.70;;
15202;SDS011;7702;51.046;5.184;2023-02-28T08:53:51;5.33;;;3.40;;
15202;SDS011;7702;51.046;5.184;2023-02-28T08:56:18;3.63;;;3.30;;
15202;SDS011;7702;51.046;5.184;2023-02-28T08:58:44;4.83;;;3.63;;
15202;SDS011;7702;51.046;5.184;2023-02-28T09:01:15;3.33;;;3.03;;
15202;SDS011;7702;51.046;5.184;2023-02-28T09:03:45;4.77;;;3.57;;
15202;SDS011;7702;51.046;5.184;2023-02-28T09:06:12;4.20;;;3.47;;
15202;SDS011;7702;51.046;5.184;2023-02-28T09:08:39;4.40;;;3.47;;
15202;SDS011;7702;51.046;5.184;2023-02-28T09:11:05;4.63;;;3.53;;
15202;SDS011;7702;51.046;5.184;2023-02-28T09:13:31;5.33;;;4.07;;
15202;SDS011;7702;51.046;5.184;2023-02-28T09:16:00;5.90;;;3.30;;
15202;SDS011;7702;51.046;5.184;2023-02-28T09:18:28;4.90;;;3.50;;
15202;SDS011;7702;51.046;5.184;2023-02-28T09:20:54;4.83;;;3.57;;
15202;SDS011;7702;51.046;5.184;2023-02-28T09:23:20;3.23;;;2.93;;
15202;SDS011;7702;51.046;5.184;2023-02-28T09:25:47;3.30;;;2.63;;
15202;SDS011;7702;51.046;5.184;2023-02-28T09:28:15;3.63;;;2.80;;
15202;SDS011;7702;51.046;5.184;2023-02-28T09:30:42;4.73;;;2.33;;
15202;SDS011;7702;51.046;5.184;2023-02-28T09:33:10;3.97;;;3.10;;
15202;SDS011;7702;51.046;5.184;2023-02-28T09:35:36;3.20;;;2.90;;
15202;SDS011;7702;51.046;5.184;2023-02-28T09:38:03;2.93;;;2.63;;
15202;SDS011;7702;51.046;5.184;2023-02-28T09:40:29;3.00;;;2.47;;
15202;SDS011;7702;51.046;5.184;2023-02-28T09:42:56;3.00;;;2.73;;
15202;SDS011;7702;51.046;5.184;2023-02-28T09:45:32;4.43;;;2.77;;
15202;SDS011;7702;51.046;5.184;2023-02-28T09:48:02;4.63;;;2.53;;
15202;SDS011;7702;51.046;5.184;2023-02-28T09:50:41;2.40;;;2.20;;
15202;SDS011;7702;51.046;5.184;2023-02-28T09:55:50;2.50;;;2.00;;
15202;SDS011;7702;51.046;5.184;2023-02-28T09:58:22;2.40;;;2.20;;
15202;SDS011;7702;51.046;5.184;2023-02-28T10:00:58;3.67;;;2.40;;
15202;SDS011;7702;51.046;5.184;2023-02-28T10:03:34;3.07;;;2.00;;
15202;SDS011;7702;51.046;5.184;2023-02-28T10:08:45;3.07;;;2.23;;
15202;SDS011;7702;51.046;5.184;2023-02-28T10:11:25;2.20;;;2.00;;
15202;SDS011;7702;51.046;5.184;2023-02-28T10:14:02;2.00;;;1.90;;
15202;SDS011;7702;51.046;5.184;2023-02-28T10:16:58;4.23;;;2.60;;
15202;SDS011;7702;51.046;5.184;2023-02-28T10:24:49;3.03;;;2.00;;
15202;SDS011;7702;51.046;5.184;2023-02-28T10:27:19;5.17;;;2.23;;
15202;SDS011;7702;51.046;5.184;2023-02-28T10:29:54;3.70;;;2.27;;
15202;SDS011;7702;51.046;5.184;2023-02-28T10:32:31;2.60;;;1.73;;
15202;SDS011;7702;51.046;5.184;2023-02-28T10:37:44;3.20;;;1.87;;
15202;SDS011;7702;51.046;5.184;2023-02-28T10:43:03;2.80;;;2.37;;
15202;SDS011;7702;51.046;5.184;2023-02-28T10:45:31;2.40;;;1.77;;
15202;SDS011;7702;51.046;5.184;2023-02-28T10:50:44;1.60;;;1.50;;
15202;SDS011;7702;51.046;5.184;2023-02-28T11:06:45;1.80;;;1.70;;
15202;SDS011;7702;51.046;5.184;2023-02-28T11:09:18;2.33;;;1.90;;
15202;SDS011;7702;51.046;5.184;2023-02-28T11:11:50;1.77;;;1.67;;
15202;SDS011;7702;51.046;5.184;2023-02-28T11:14:21;3.23;;;1.70;;
15202;SDS011;7702;51.046;5.184;2023-02-28T11:16:49;1.80;;;1.70;;
15202;SDS011;7702;51.046;5.184;2023-02-28T11:19:18;1.60;;;1.50;;
15202;SDS011;7702;51.046;5.184;2023-02-28T11:21:56;3.33;;;1.57;;
15202;SDS011;7702;51.046;5.184;2023-02-28T11:24:27;2.23;;;2.00;;
15202;SDS011;7702;51.046;5.184;2023-02-28T11:26:56;2.67;;;2.13;;
15202;SDS011;7702;51.046;5.184;2023-02-28T11:29:29;1.93;;;1.70;;
15202;SDS011;7702;51.046;5.184;2023-02-28T11:34:42;2.00;;;1.80;;
15202;SDS011;7702;51.046;5.184;2023-02-28T11:37:11;1.80;;;1.70;;
15202;SDS011;7702;51.046;5.184;2023-02-28T11:39:39;2.40;;;2.17;;
15202;SDS011;7702;51.046;5.184;2023-02-28T11:47:24;3.00;;;2.10;;
15202;SDS011;7702;51.046;5.184;2023-02-28T11:55:37;2.20;;;2.10;;
15202;SDS011;7702;51.046;5.184;2023-02-28T12:01:07;3.63;;;1.73;;
15202;SDS011;7702;51.046;5.184;2023-02-28T12:07:34;2.70;;;2.50;;
15202;SDS011;7702;51.046;5.184;2023-02-28T12:10:20;2.37;;;2.00;;
15202;SDS011;7702;51.046;5.184;2023-02-28T12:13:04;1.87;;;1.77;;
15202;SDS011;7702;51.046;5.184;2023-02-28T12:15:43;4.63;;;2.20;;
15202;SDS011;7702;51.046;5.184;2023-02-28T12:24:17;1.97;;;1.87;;
15202;SDS011;7702;51.046;5.184;2023-02-28T12:27:00;1.90;;;1.80;;
15202;SDS011;7702;51.046;5.184;2023-02-28T12:29:41;2.53;;;2.33;;
15202;SDS011;7702;51.046;5.184;2023-02-28T12:32:27;6.10;;;2.80;;
15202;SDS011;7702;51.046;5.184;2023-02-28T12:40:18;2.80;;;2.27;;
15202;SDS011;7702;51.046;5.184;2023-02-28T12:45:31;3.30;;;1.90;;
15202;SDS011;7702;51.046;5.184;2023-02-28T12:48:24;2.37;;;2.20;;
15202;SDS011;7702;51.046;5.184;2023-02-28T12:51:04;2.17;;;1.97;;
15202;SDS011;7702;51.046;5.184;2023-02-28T12:56:15;2.87;;;2.53;;
15202;SDS011;7702;51.046;5.184;2023-02-28T12:58:51;2.73;;;2.53;;
15202;SDS011;7702;51.046;5.184;2023-02-28T13:07:10;3.10;;;2.80;;
15202;SDS011;7702;51.046;5.184;2023-02-28T13:09:52;2.73;;;2.53;;
15202;SDS011;7702;51.046;5.184;2023-02-28T13:12:23;4.53;;;3.00;;
15202;SDS011;7702;51.046;5.184;2023-02-28T13:14:49;5.20;;;2.60;;
15202;SDS011;7702;51.046;5.184;2023-02-28T13:17:25;4.57;;;3.23;;
15202;SDS011;7702;51.046;5.184;2023-02-28T13:24:54;4.13;;;2.73;;
15202;SDS011;7702;51.046;5.184;2023-02-28T13:27:31;3.10;;;2.13;;
15202;SDS011;7702;51.046;5.184;2023-02-28T13:38:51;3.20;;;2.90;;
15202;SDS011;7702;51.046;5.184;2023-02-28T13:46:38;3.13;;;2.47;;
15202;SDS011;7702;51.046;5.184;2023-02-28T14:05:28;4.13;;;2.97;;
15202;SDS011;7702;51.046;5.184;2023-02-28T14:07:58;4.07;;;2.90;;
15202;SDS011;7702;51.046;5.184;2023-02-28T14:10:31;2.87;;;2.53;;
15202;SDS011;7702;51.046;5.184;2023-02-28T14:18:28;2.83;;;2.60;;
15202;SDS011;7702;51.046;5.184;2023-02-28T14:21:43;5.47;;;3.60;;
15202;SDS011;7702;51.046;5.184;2023-02-28T14:26:58;3.33;;;2.80;;
15202;SDS011;7702;51.046;5.184;2023-02-28T14:29:29;2.67;;;2.47;;
15202;SDS011;7702;51.046;5.184;2023-02-28T14:32:21;7.00;;;2.63;;
15202;SDS011;7702;51.046;5.184;2023-02-28T14:37:30;8.80;;;3.40;;
15202;SDS011;7702;51.046;5.184;2023-02-28T14:40:01;2.87;;;2.47;;
15202;SDS011;7702;51.046;5.184;2023-02-28T14:42:31;2.93;;;2.43;;
15202;SDS011;7702;51.046;5.184;2023-02-28T14:45:03;2.90;;;2.40;;
15202;SDS011;7702;51.046;5.184;2023-02-28T14:47:32;7.90;;;2.80;;
15202;SDS011;7702;51.046;5.184;2023-02-28T14:50:00;2.27;;;2.10;;
15202;SDS011;7702;51.046;5.184;2023-02-28T14:52:29;2.93;;;2.50;;
15202;SDS011;7702;51.046;5.184;2023-02-28T14:54:58;3.67;;;3.00;;
15202;SDS011;7702;51.046;5.184;2023-02-28T15:02:40;3.30;;;3.00;;
15202;SDS011;7702;51.046;5.184;2023-02-28T15:07:36;3.23;;;2.93;;
15202;SDS011;7702;51.046;5.184;2023-02-28T15:13:06;2.57;;;2.37;;
15202;SDS011;7702;51.046;5.184;2023-02-28T15:18:07;3.00;;;2.80;;
15202;SDS011;7702;51.046;5.184;2023-02-28T15:20:44;2.27;;;2.00;;
15202;SDS011;7702;51.046;5.184;2023-02-28T15:23:10;2.60;;;2.30;;
15202;SDS011;7702;51.046;5.184;2023-02-28T15:25:37;2.60;;;2.10;;
15202;SDS011;7702;51.046;5.184;2023-02-28T15:28:03;2.77;;;2.57;;
15202;SDS011;7702;51.046;5.184;2023-02-28T15:30:29;2.47;;;2.27;;
15202;SDS011;7702;51.046;5.184;2023-02-28T15:35:38;2.90;;;2.50;;
15202;SDS011;7702;51.046;5.184;2023-02-28T15:40:37;4.17;;;2.77;;
15202;SDS011;7702;51.046;5.184;2023-02-28T15:48:18;2.57;;;2.37;;
15202;SDS011;7702;51.046;5.184;2023-02-28T15:50:47;3.00;;;2.40;;
15202;SDS011;7702;51.046;5.184;2023-02-28T15:53:16;3.60;;;2.77;;
15202;SDS011;7702;51.046;5.184;2023-02-28T15:55:51;4.67;;;2.60;;
15202;SDS011;7702;51.046;5.184;2023-02-28T15:58:19;2.90;;;2.70;;
15202;SDS011;7702;51.046;5.184;2023-02-28T16:00:59;6.33;;;2.73;;
15202;SDS011;7702;51.046;5.184;2023-02-28T16:03:39;2.87;;;2.37;;
15202;SDS011;7702;51.046;5.184;2023-02-28T16:06:09;3.33;;;2.63;;
15202;SDS011;7702;51.046;5.184;2023-02-28T16:08:49;2.77;;;2.33;;
15202;SDS011;7702;51.046;5.184;2023-02-28T16:11:17;2.63;;;2.33;;
15202;SDS011;7702;51.046;5.184;2023-02-28T16:13:43;2.40;;;2.20;;
15202;SDS011;7702;51.046;5.184;2023-02-28T16:16:14;2.67;;;2.47;;
15202;SDS011;7702;51.046;5.184;2023-02-28T16:18:42;3.53;;;2.50;;
15202;SDS011;7702;51.046;5.184;2023-02-28T16:21:08;3.60;;;2.80;;
15202;SDS011;7702;51.046;5.184;2023-02-28T16:23:34;4.03;;;2.77;;
15202;SDS011;7702;51.046;5.184;2023-02-28T16:25:59;2.17;;;2.03;;
15202;SDS011;7702;51.046;5.184;2023-02-28T16:28:29;3.37;;;2.83;;
15202;SDS011;7702;51.046;5.184;2023-02-28T16:30:57;3.17;;;2.87;;
15202;SDS011;7702;51.046;5.184;2023-02-28T16:33:25;3.47;;;2.80;;
15202;SDS011;7702;51.046;5.184;2023-02-28T16:35:51;3.33;;;3.03;;
15202;SDS011;7702;51.046;5.184;2023-02-28T16:38:17;4.73;;;3.07;;
15202;SDS011;7702;51.046;5.184;2023-02-28T16:40:42;3.50;;;3.20;;
15202;SDS011;7702;51.046;5.184;2023-02-28T16:43:16;4.60;;;3.40;;
15202;SDS011;7702;51.046;5.184;2023-02-28T16:45:44;2.87;;;2.47;;
15202;SDS011;7702;51.046;5.184;2023-02-28T16:48:11;3.33;;;3.03;;
15202;SDS011;7702;51.046;5.184;2023-02-28T16:50:39;3.40;;;3.00;;
15202;SDS011;7702;51.046;5.184;2023-02-28T16:53:05;4.23;;;3.20;;
15202;SDS011;7702;51.046;5.184;2023-02-28T16:55:31;5.90;;;3.07;;
15202;SDS011;7702;51.046;5.184;2023-02-28T16:57:58;2.90;;;2.63;;
15202;SDS011;7702;51.046;5.184;2023-02-28T17:00:25;3.70;;;2.80;;
15202;SDS011;7702;51.046;5.184;2023-02-28T17:02:53;3.50;;;3.17;;
15202;SDS011;7702;51.046;5.184;2023-02-28T17:05:19;4.43;;;4.00;;
15202;SDS011;7702;51.046;5.184;2023-02-28T17:07:46;3.80;;;3.13;;
15202;SDS011;7702;51.046;5.184;2023-02-28T17:10:16;6.53;;;3.80;;
15202;SDS011;7702;51.046;5.184;2023-02-28T17:12:43;4.27;;;3.50;;
15202;SDS011;7702;51.046;5.184;2023-02-28T17:15:10;3.77;;;3.40;;
15202;SDS011;7702;51.046;5.184;2023-02-28T17:17:36;3.73;;;3.43;;
15202;SDS011;7702;51.046;5.184;2023-02-28T17:20:03;4.00;;;3.60;;
15202;SDS011;7702;51.046;5.184;2023-02-28T17:22:30;4.13;;;3.47;;
15202;SDS011;7702;51.046;5.184;2023-02-28T17:24:57;6.13;;;3.57;;
15202;SDS011;7702;51.046;5.184;2023-02-28T17:27:23;6.60;;;4.43;;
15202;SDS011;7702;51.046;5.184;2023-02-28T17:29:50;8.20;;;6.40;;
15202;SDS011;7702;51.046;5.184;2023-02-28T17:32:16;6.67;;;4.60;;
15202;SDS011;7702;51.046;5.184;2023-02-28T17:34:42;4.33;;;3.90;;
15202;SDS011;7702;51.046;5.184;2023-02-28T17:37:09;5.30;;;4.03;;
15202;SDS011;7702;51.046;5.184;2023-02-28T17:39:35;4.67;;;4.10;;
15202;SDS011;7702;51.046;5.184;2023-02-28T17:42:01;5.67;;;4.43;;
15202;SDS011;7702;51.046;5.184;2023-02-28T17:44:26;4.53;;;4.13;;
15202;SDS011;7702;51.046;5.184;2023-02-28T17:46:53;5.30;;;4.80;;
15202;SDS011;7702;51.046;5.184;2023-02-28T17:49:19;6.70;;;4.40;;
15202;SDS011;7702;51.046;5.184;2023-02-28T17:51:46;5.47;;;4.23;;
15202;SDS011;7702;51.046;5.184;2023-02-28T17:54:12;5.17;;;3.43;;
15202;SDS011;7702;51.046;5.184;2023-02-28T17:56:39;4.60;;;3.33;;
15202;SDS011;7702;51.046;5.184;2023-02-28T17:59:08;6.23;;;3.57;;
15202;SDS011;7702;51.046;5.184;2023-02-28T18:01:34;6.37;;;3.43;;
15202;SDS011;7702;51.046;5.184;2023-02-28T18:04:00;6.47;;;3.20;;